createdAt,value
2019-02-25T00:01:43.476Z,27.20
2019-02-25T00:04:14.654Z,27.50
2019-02-25T00:06:45.379Z,28.20
2019-02-25T00:09:16.174Z,31.17
2019-02-25T00:11:46.828Z,30.57
2019-02-25T00:14:17.762Z,31.90
2019-02-25T00:16:50.049Z,29.23
2019-02-25T00:19:20.945Z,31.07
2019-02-25T00:21:51.645Z,31.53
2019-02-25T00:24:22.557Z,32.07
2019-02-25T00:26:53.265Z,33.27
2019-02-25T00:29:24.521Z,32.37
2019-02-25T00:31:55.328Z,32.37
2019-02-25T00:34:26.251Z,31.97
2019-02-25T00:36:57.184Z,31.33
2019-02-25T00:39:28.328Z,33.67
2019-02-25T00:41:59.530Z,30.50
2019-02-25T00:44:30.200Z,33.30
2019-02-25T00:47:00.798Z,32.43
2019-02-25T00:49:31.416Z,31.83
2019-02-25T00:52:02.711Z,31.93
2019-02-25T00:54:33.439Z,31.53
2019-02-25T00:57:04.132Z,31.60
2019-02-25T00:59:34.738Z,30.97
2019-02-25T01:02:05.354Z,31.37
2019-02-25T01:04:36.281Z,31.07
2019-02-25T01:07:07.212Z,30.47
2019-02-25T01:09:37.816Z,31.90
2019-02-25T01:12:08.428Z,30.53
2019-02-25T01:14:40.380Z,30.93
2019-02-25T01:17:11.399Z,31.50
2019-02-25T01:19:41.928Z,32.10
2019-02-25T01:22:12.564Z,29.23
2019-02-25T01:24:43.101Z,30.77
2019-02-25T01:27:13.894Z,27.17
2019-02-25T01:29:44.585Z,27.10
2019-02-25T01:32:15.250Z,27.87
2019-02-25T01:34:45.865Z,24.03
2019-02-25T01:37:16.597Z,25.67
2019-02-25T01:39:47.221Z,26.97
2019-02-25T01:42:17.899Z,26.27
2019-02-25T01:44:48.507Z,23.47
2019-02-25T01:47:19.265Z,22.40
2019-02-25T01:49:50.104Z,21.00
2019-02-25T01:52:20.801Z,21.60
2019-02-25T01:54:51.477Z,22.03
2019-02-25T01:57:22.152Z,23.17
2019-02-25T01:59:52.883Z,24.50
2019-02-25T02:02:23.476Z,24.33
2019-02-25T02:04:54.099Z,25.20
2019-02-25T02:07:24.684Z,24.60
2019-02-25T02:09:55.297Z,25.87
2019-02-25T02:12:25.934Z,24.20
2019-02-25T02:14:56.632Z,24.77
2019-02-25T02:17:27.305Z,24.67
2019-02-25T02:19:57.873Z,23.53
2019-02-25T02:22:28.585Z,24.00
2019-02-25T02:24:59.240Z,28.87
2019-02-25T02:27:29.860Z,29.03
2019-02-25T02:30:00.486Z,28.57
2019-02-25T02:32:31.131Z,28.20
2019-02-25T02:35:01.813Z,29.90
2019-02-25T02:37:32.560Z,29.63
2019-02-25T02:40:03.371Z,30.20
2019-02-25T02:42:34.213Z,29.73
2019-02-25T02:45:29.966Z,28.27
2019-02-25T02:48:06.529Z,30.00
2019-02-25T02:50:37.113Z,29.60
2019-02-25T02:53:07.917Z,27.97
2019-02-25T02:55:38.665Z,26.63
2019-02-25T02:58:09.457Z,26.17
2019-02-25T03:00:41.211Z,26.77
2019-02-25T03:03:11.855Z,25.30
2019-02-25T03:05:42.533Z,27.93
2019-02-25T03:08:13.385Z,28.77
2019-02-25T03:10:44.036Z,28.77
2019-02-25T03:13:14.716Z,30.23
2019-02-25T03:15:45.321Z,31.17
2019-02-25T03:18:15.940Z,30.43
2019-02-25T03:20:46.584Z,31.57
2019-02-25T03:23:17.292Z,30.47
2019-02-25T03:25:47.971Z,31.67
2019-02-25T03:31:15.209Z,30.67
2019-02-25T03:33:45.957Z,30.50
2019-02-25T03:36:16.564Z,29.07
2019-02-25T03:38:47.319Z,28.63
2019-02-25T03:41:18.081Z,27.30
2019-02-25T03:43:49.852Z,28.67
2019-02-25T03:46:20.459Z,26.93
2019-02-25T03:48:51.132Z,26.53
2019-02-25T03:51:21.804Z,26.23
2019-02-25T03:53:52.380Z,25.97
2019-02-25T03:56:22.993Z,24.33
2019-02-25T03:58:53.501Z,19.77
2019-02-25T04:01:24.218Z,18.47
2019-02-25T04:03:54.817Z,19.77
2019-02-25T04:06:25.381Z,20.30
2019-02-25T04:08:56.057Z,18.47
2019-02-25T04:11:26.769Z,18.97
2019-02-25T04:13:57.363Z,24.23
2019-02-25T04:19:24.266Z,21.50
2019-02-25T04:21:54.826Z,24.20
2019-02-25T04:24:25.413Z,23.97
2019-02-25T04:26:55.993Z,24.93
2019-02-25T04:29:26.628Z,25.23
2019-02-25T04:31:57.203Z,26.63
2019-02-25T04:34:27.815Z,25.23
2019-02-25T04:36:58.388Z,26.30
2019-02-25T04:39:28.973Z,25.40
2019-02-25T04:41:59.569Z,23.97
2019-02-25T04:44:30.127Z,21.43
2019-02-25T04:49:44.671Z,19.40
2019-02-25T04:52:15.136Z,19.30
2019-02-25T04:54:45.669Z,20.73
2019-02-25T04:57:16.227Z,19.57
2019-02-25T04:59:46.861Z,19.23
2019-02-25T05:02:17.411Z,20.10
2019-02-25T05:04:48.021Z,20.57
2019-02-25T05:07:18.617Z,21.93
2019-02-25T05:09:49.114Z,21.17
2019-02-25T05:12:19.712Z,21.97
2019-02-25T05:14:50.297Z,22.53
2019-02-25T05:17:20.949Z,23.30
2019-02-25T05:19:51.529Z,21.70
2019-02-25T05:22:22.038Z,20.30
2019-02-25T05:24:52.629Z,21.27
2019-02-25T05:27:23.123Z,22.33
2019-02-25T05:29:53.649Z,22.33
2019-02-25T05:32:24.241Z,23.50
2019-02-25T05:34:54.816Z,23.17
2019-02-25T05:37:25.405Z,22.30
2019-02-25T05:39:55.993Z,22.60
2019-02-25T05:42:26.591Z,22.73
2019-02-25T05:44:57.171Z,22.90
2019-02-25T05:47:27.753Z,22.03
2019-02-25T05:49:58.422Z,25.70
2019-02-25T05:52:29.985Z,25.33
2019-02-25T05:55:00.584Z,23.03
2019-02-25T05:57:31.183Z,24.07
2019-02-25T06:00:02.686Z,24.63
2019-02-25T06:02:34.267Z,23.43
2019-02-25T06:05:04.985Z,23.53
2019-02-25T06:07:35.536Z,22.60
2019-02-25T06:10:06.474Z,21.17
2019-02-25T06:12:37.032Z,22.40
2019-02-25T06:15:08.640Z,22.30
2019-02-25T06:17:39.215Z,21.87
2019-02-25T06:20:10.501Z,23.70
2019-02-25T06:22:41.029Z,22.20
2019-02-25T06:25:11.866Z,22.90
2019-02-25T06:27:42.490Z,23.37
2019-02-25T06:30:16.960Z,21.97
2019-02-25T06:32:47.580Z,21.90
2019-02-25T06:35:18.297Z,23.60
2019-02-25T06:37:48.899Z,24.40
2019-02-25T06:43:01.897Z,23.17
2019-02-25T06:45:32.503Z,23.20
2019-02-25T06:48:03.091Z,23.47
2019-02-25T06:50:33.656Z,22.90
2019-02-25T06:53:04.541Z,22.07
2019-02-25T06:55:35.054Z,22.20
2019-02-25T06:58:05.644Z,21.20
2019-02-25T07:00:36.167Z,22.50
2019-02-25T07:03:06.765Z,23.03
2019-02-25T07:05:59.295Z,22.83
2019-02-25T07:08:39.899Z,21.73
2019-02-25T07:11:29.453Z,21.80
2019-02-25T07:14:08.622Z,21.33
2019-02-25T07:17:01.160Z,20.77
2019-02-25T07:20:02.907Z,20.87
2019-02-25T07:22:58.260Z,21.57
2019-02-25T07:25:47.793Z,20.87
2019-02-25T07:28:37.277Z,21.07
2019-02-25T07:31:18.089Z,20.73
2019-02-25T07:34:00.630Z,23.10
2019-02-25T07:37:05.180Z,22.37
2019-02-25T07:40:03.398Z,21.00
2019-02-25T07:42:52.908Z,22.10
2019-02-25T07:48:19.835Z,23.13
2019-02-25T07:53:57.272Z,22.50
2019-02-25T07:56:46.827Z,22.87
2019-02-25T07:59:24.453Z,22.13
2019-02-25T08:02:26.104Z,22.63
2019-02-25T08:05:03.236Z,22.37
2019-02-25T08:07:55.781Z,24.17
2019-02-25T08:10:36.180Z,23.50
2019-02-25T08:13:40.790Z,20.77
2019-02-25T08:16:20.569Z,22.13
2019-02-25T08:19:08.445Z,22.87
2019-02-25T08:22:03.654Z,22.20
2019-02-25T08:27:51.687Z,23.57
2019-02-25T08:30:41.181Z,21.57
2019-02-25T08:33:29.230Z,23.07
2019-02-25T08:37:10.017Z,22.67
2019-02-25T08:40:00.467Z,22.23
2019-02-25T08:42:44.178Z,21.10
2019-02-25T08:45:45.812Z,20.00
2019-02-25T08:48:23.839Z,18.70
2019-02-25T08:50:56.235Z,19.73
2019-02-25T08:53:26.894Z,20.93
2019-02-25T08:55:58.371Z,20.97
2019-02-25T08:58:28.909Z,19.43
2019-02-25T09:00:59.404Z,19.20
2019-02-25T09:03:30.009Z,19.37
2019-02-25T09:06:00.558Z,19.07
2019-02-25T09:08:31.174Z,22.00
2019-02-25T09:11:01.761Z,21.77
2019-02-25T09:13:32.357Z,22.07
2019-02-25T09:16:02.945Z,21.83
2019-02-25T09:18:33.527Z,21.57
2019-02-25T09:21:04.108Z,21.20
2019-02-25T09:23:34.737Z,20.30
2019-02-25T09:26:05.306Z,20.27
2019-02-25T09:28:38.935Z,21.10
2019-02-25T09:31:09.517Z,20.50
2019-02-25T09:33:40.126Z,17.87
2019-02-25T09:36:10.681Z,19.00
2019-02-25T09:38:41.281Z,18.30
2019-02-25T09:41:11.861Z,18.37
2019-02-25T09:43:42.473Z,18.07
2019-02-25T09:46:13.095Z,20.20
2019-02-25T09:48:43.660Z,20.83
2019-02-25T09:51:14.592Z,21.33
2019-02-25T09:53:45.155Z,22.03
2019-02-25T09:56:15.813Z,18.23
2019-02-25T09:58:46.422Z,17.63
2019-02-25T10:01:17.022Z,15.80
2019-02-25T10:03:47.591Z,16.50
2019-02-25T10:06:18.130Z,17.87
2019-02-25T10:08:48.685Z,17.43
2019-02-25T10:11:19.327Z,16.60
2019-02-25T10:13:51.785Z,17.17
2019-02-25T10:16:22.165Z,16.43
2019-02-25T10:18:53.084Z,16.47
2019-02-25T10:21:24.369Z,15.73
2019-02-25T10:23:55.428Z,16.07
2019-02-25T10:26:25.986Z,15.10
2019-02-25T10:28:56.582Z,14.70
2019-02-25T10:31:27.186Z,15.63
2019-02-25T10:33:57.750Z,16.60
2019-02-25T10:36:28.248Z,16.37
2019-02-25T10:38:58.769Z,16.77
2019-02-25T10:41:30.237Z,16.20
2019-02-25T10:44:02.287Z,14.93
2019-02-25T10:46:33.903Z,15.73
2019-02-25T10:49:11.227Z,14.77
2019-02-25T10:51:37.335Z,15.63
2019-02-25T10:54:08.816Z,13.73
2019-02-25T10:57:06.748Z,15.77
2019-02-25T11:02:44.207Z,14.53
2019-02-25T11:05:12.644Z,15.30
2019-02-25T11:07:43.208Z,16.53
2019-02-25T11:10:33.881Z,15.53
2019-02-25T11:13:04.627Z,15.20
2019-02-25T11:15:37.513Z,16.47
2019-02-25T11:18:08.667Z,15.20
2019-02-25T11:20:39.281Z,15.27
2019-02-25T11:23:12.823Z,15.57
2019-02-25T11:25:43.052Z,14.73
2019-02-25T11:28:24.890Z,15.10
2019-02-25T11:30:47.599Z,14.90
2019-02-25T11:33:18.068Z,14.93
2019-02-25T11:35:48.678Z,15.83
2019-02-25T11:38:19.260Z,14.57
2019-02-25T11:40:49.832Z,15.13
2019-02-25T11:43:21.600Z,15.47
2019-02-25T11:45:52.263Z,15.23
2019-02-25T11:48:22.814Z,15.67
2019-02-25T11:50:53.288Z,15.00
2019-02-25T11:53:23.857Z,14.83
2019-02-25T11:55:54.416Z,14.47
2019-02-25T11:58:24.903Z,14.83
2019-02-25T12:00:55.533Z,14.80
2019-02-25T12:03:26.121Z,14.63
2019-02-25T12:08:45.453Z,15.37
2019-02-25T12:11:15.917Z,14.93
2019-02-25T12:13:46.531Z,15.70
2019-02-25T12:16:17.084Z,14.20
2019-02-25T12:18:47.674Z,14.73
2019-02-25T12:21:18.140Z,14.33
2019-02-25T12:23:48.740Z,15.17
2019-02-25T12:26:19.316Z,14.27
2019-02-25T12:28:49.880Z,12.67
2019-02-25T12:31:20.432Z,13.20
2019-02-25T12:36:40.472Z,12.93
2019-02-25T12:39:11.204Z,12.17
2019-02-25T12:41:41.790Z,12.53
2019-02-25T12:44:12.404Z,12.80
2019-02-25T12:46:42.918Z,12.20
2019-02-25T12:49:13.529Z,12.13
2019-02-25T12:51:44.107Z,12.67
2019-02-25T12:54:14.708Z,12.80
2019-02-25T12:56:45.292Z,13.03
2019-02-25T12:59:15.799Z,12.93
2019-02-25T13:01:46.421Z,13.17
2019-02-25T13:04:17.020Z,13.30
2019-02-25T13:06:47.492Z,13.50
2019-02-25T13:09:18.080Z,13.50
2019-02-25T13:11:48.645Z,13.60
2019-02-25T13:14:19.248Z,13.50
2019-02-25T13:16:49.784Z,13.00
2019-02-25T13:19:20.408Z,13.23
2019-02-25T13:24:40.397Z,13.80
2019-02-25T13:27:11.883Z,13.67
2019-02-25T13:29:43.188Z,13.80
2019-02-25T13:32:13.794Z,14.60
2019-02-25T13:34:44.430Z,14.43
2019-02-25T13:37:15.011Z,14.33
2019-02-25T13:39:45.614Z,13.70
2019-02-25T13:42:16.241Z,13.47
2019-02-25T13:44:46.807Z,14.17
2019-02-25T13:47:17.349Z,13.93
2019-02-25T13:49:47.931Z,15.13
2019-02-25T13:52:18.503Z,14.07
2019-02-25T13:54:49.080Z,15.47
2019-02-25T13:57:19.680Z,14.53
2019-02-25T13:59:51.244Z,15.30
2019-02-25T14:02:21.816Z,13.87
2019-02-25T14:04:52.356Z,14.63
2019-02-25T14:07:23.175Z,14.90
2019-02-25T14:09:53.784Z,14.97
2019-02-25T14:12:24.345Z,13.93
2019-02-25T14:14:54.952Z,14.33
2019-02-25T14:17:26.440Z,14.30
2019-02-25T14:19:57.801Z,15.23
2019-02-25T14:22:28.584Z,15.67
2019-02-25T14:24:59.526Z,14.85
2019-02-25T14:27:30.228Z,14.77
2019-02-25T14:30:00.971Z,14.63
2019-02-25T14:32:31.966Z,14.73
2019-02-25T14:35:05.119Z,15.10
2019-02-25T14:37:35.410Z,14.73
2019-02-25T14:40:08.691Z,14.47
2019-02-25T14:42:39.431Z,14.07
2019-02-25T14:45:11.477Z,14.40
2019-02-25T14:47:44.245Z,15.25
2019-02-25T14:50:16.009Z,15.18
2019-02-25T14:52:48.350Z,14.63
2019-02-25T14:55:19.308Z,14.95
2019-02-25T14:57:50.249Z,14.98
2019-02-25T15:00:24.242Z,14.30
2019-02-25T15:02:56.013Z,14.43
2019-02-25T15:05:27.101Z,12.30
2019-02-25T15:07:58.588Z,13.28
2019-02-25T15:10:31.723Z,14.07
2019-02-25T15:13:03.834Z,13.53
2019-02-25T15:15:34.872Z,13.95
2019-02-25T15:18:05.867Z,12.73
2019-02-25T15:20:36.694Z,11.97
2019-02-25T15:23:07.743Z,11.93
2019-02-25T15:25:40.882Z,17.20
2019-02-25T15:28:11.996Z,12.00
2019-02-25T15:30:44.141Z,12.43
2019-02-25T15:33:15.145Z,12.55
2019-02-25T15:35:46.913Z,12.37
2019-02-25T15:38:17.520Z,13.35
2019-02-25T15:40:48.217Z,12.43
2019-02-25T15:43:21.259Z,12.23
2019-02-25T15:45:51.208Z,13.00
2019-02-25T15:48:22.308Z,12.90
2019-02-25T15:50:55.613Z,12.50
2019-02-25T15:53:26.994Z,12.33
2019-02-25T15:56:01.022Z,12.47
2019-02-25T15:58:29.923Z,12.63
2019-02-25T16:01:00.576Z,13.13
2019-02-25T16:03:32.252Z,12.73
2019-02-25T16:06:07.929Z,13.50
2019-02-25T16:08:38.565Z,13.38
2019-02-25T16:11:09.775Z,13.25
2019-02-25T16:13:40.367Z,14.63
2019-02-25T16:16:11.597Z,12.13
2019-02-25T16:18:42.603Z,13.55
2019-02-25T16:21:13.392Z,13.58
2019-02-25T16:23:45.362Z,14.03
2019-02-25T16:26:17.784Z,14.38
2019-02-25T16:28:50.261Z,15.63
2019-02-25T16:31:20.697Z,15.35
2019-02-25T16:33:53.260Z,16.20
2019-02-25T16:39:00.402Z,16.40
2019-02-25T16:41:34.729Z,15.63
2019-02-25T16:44:06.677Z,16.07
2019-02-25T16:46:39.431Z,16.13
2019-02-25T16:49:09.429Z,16.47
2019-02-25T16:52:00.344Z,18.33
2019-02-25T16:54:31.323Z,17.80
2019-02-25T16:57:01.887Z,18.13
2019-02-25T16:59:32.797Z,17.90
2019-02-25T17:02:04.676Z,15.80
2019-02-25T17:07:24.917Z,17.50
2019-02-25T17:09:56.888Z,16.00
2019-02-25T17:12:29.578Z,15.97
2019-02-25T17:15:00.941Z,16.73
2019-02-25T17:17:32.188Z,16.37
2019-02-25T17:20:03.075Z,16.20
2019-02-25T17:22:34.636Z,15.90
2019-02-25T17:25:09.654Z,16.67
2019-02-25T17:27:38.354Z,15.40
2019-02-25T17:30:16.988Z,15.97
2019-02-25T17:32:48.424Z,16.53
2019-02-25T17:35:21.353Z,17.73
2019-02-25T17:37:53.400Z,17.03
2019-02-25T17:40:24.811Z,16.83
2019-02-25T17:42:56.391Z,16.73
2019-02-25T17:45:29.109Z,16.50
2019-02-25T17:48:03.186Z,17.17
2019-02-25T17:50:34.587Z,17.43
2019-02-25T17:53:05.085Z,17.50
2019-02-25T17:55:36.637Z,18.20
2019-02-25T17:58:08.011Z,18.23
2019-02-25T18:00:42.340Z,20.43
2019-02-25T18:03:14.973Z,22.70
2019-02-25T18:05:45.797Z,22.50
2019-02-25T18:08:16.998Z,22.40
2019-02-25T18:10:48.343Z,23.20
2019-02-25T18:13:21.963Z,23.43
2019-02-25T18:15:53.661Z,21.70
2019-02-25T18:18:25.194Z,20.47
2019-02-25T18:20:55.796Z,20.10
2019-02-25T18:23:26.869Z,21.87
2019-02-25T18:25:58.822Z,21.30
2019-02-25T18:28:30.512Z,19.73
2019-02-25T18:31:01.752Z,19.53
2019-02-25T18:33:33.549Z,18.23
2019-02-25T18:38:54.832Z,17.90
2019-02-25T18:41:27.435Z,17.60
2019-02-25T18:43:58.348Z,18.33
2019-02-25T18:46:29.812Z,20.37
2019-02-25T18:49:02.647Z,21.27
2019-02-25T18:51:35.783Z,22.53
2019-02-25T18:54:06.369Z,22.73
2019-02-25T18:59:20.286Z,20.90
2019-02-25T19:01:52.028Z,19.27
2019-02-25T19:04:23.442Z,20.17
2019-02-25T19:06:54.354Z,22.30
2019-02-25T19:09:25.572Z,24.27
2019-02-25T19:11:58.329Z,29.53
2019-02-25T19:14:30.942Z,23.67
2019-02-25T19:17:02.658Z,19.13
2019-02-25T19:19:36.465Z,18.93
2019-02-25T19:22:08.675Z,18.90
2019-02-25T19:24:42.249Z,17.57
2019-02-25T19:27:12.942Z,17.43
2019-02-25T19:29:45.551Z,17.73
2019-02-25T19:32:16.363Z,19.20
2019-02-25T19:34:47.140Z,20.83
2019-02-25T19:37:17.987Z,21.87
2019-02-25T19:39:50.414Z,28.90
2019-02-25T19:42:22.877Z,26.47
2019-02-25T19:44:53.755Z,27.50
2019-02-25T19:47:24.740Z,27.83
2019-02-25T19:49:57.173Z,28.23
2019-02-25T19:52:30.725Z,26.93
2019-02-25T19:55:00.730Z,26.67
2019-02-25T19:57:32.033Z,27.37
2019-02-25T20:00:03.084Z,27.93
2019-02-25T20:02:35.289Z,29.30
2019-02-25T20:05:11.669Z,28.77
2019-02-25T20:07:41.073Z,27.87
2019-02-25T20:10:13.690Z,27.57
2019-02-25T20:12:44.495Z,28.43
2019-02-25T20:15:18.756Z,27.67
2019-02-25T20:17:50.644Z,26.67
2019-02-25T20:20:22.288Z,23.27
2019-02-25T20:22:53.303Z,22.60
2019-02-25T20:25:26.375Z,22.97
2019-02-25T20:27:57.621Z,22.33
2019-02-25T20:30:30.494Z,19.73
2019-02-25T20:33:03.312Z,21.43
2019-02-25T20:35:33.872Z,20.60
2019-02-25T20:38:05.203Z,22.27
2019-02-25T20:43:21.259Z,22.17
2019-02-25T20:45:54.082Z,24.07
2019-02-25T20:48:22.724Z,22.80
2019-02-25T20:50:53.277Z,26.73
2019-02-25T20:53:27.277Z,25.73
2019-02-25T20:55:58.894Z,28.03
2019-02-25T20:58:29.581Z,27.07
2019-02-25T21:01:05.277Z,27.73
2019-02-25T21:03:33.643Z,26.53
2019-02-25T21:08:52.825Z,29.50
2019-02-25T21:11:23.414Z,29.60
2019-02-25T21:13:54.174Z,32.10
2019-02-25T21:16:26.301Z,32.33
2019-02-25T21:18:57.297Z,32.40
2019-02-25T21:21:28.673Z,31.03
2019-02-25T21:24:01.936Z,31.73
2019-02-25T21:26:33.990Z,31.07
2019-02-25T21:29:06.991Z,31.10
2019-02-25T21:31:42.627Z,31.17
2019-02-25T21:34:15.328Z,32.83
2019-02-25T21:36:43.260Z,31.60
2019-02-25T21:39:14.677Z,34.00
2019-02-25T21:41:46.573Z,36.30
2019-02-25T21:44:19.461Z,34.83
2019-02-25T21:46:51.936Z,34.83
2019-02-25T21:49:25.117Z,33.40
2019-02-25T21:51:54.609Z,31.77
2019-02-25T21:54:25.423Z,32.07
2019-02-25T21:56:56.097Z,29.57
2019-02-25T21:59:26.797Z,28.17
2019-02-25T22:01:59.251Z,27.67
2019-02-25T22:04:30.009Z,25.30
2019-02-25T22:07:02.549Z,25.63
2019-02-25T22:09:36.977Z,25.93
2019-02-25T22:12:05.758Z,25.07
2019-02-25T22:14:36.856Z,25.43
2019-02-25T22:17:08.249Z,25.67
2019-02-25T22:19:41.370Z,24.93
2019-02-25T22:22:12.150Z,24.40
2019-02-25T22:24:43.038Z,23.53
2019-02-25T22:27:16.088Z,24.97
2019-02-25T22:29:47.064Z,25.40
2019-02-25T22:32:18.704Z,26.70
2019-02-25T22:34:49.839Z,24.33
2019-02-25T22:37:22.593Z,23.73
2019-02-25T22:39:54.642Z,23.03
2019-02-25T22:42:26.967Z,23.83
2019-02-25T22:44:58.225Z,24.10
2019-02-25T22:47:29.496Z,24.43
2019-02-25T22:50:00.430Z,24.17
2019-02-25T22:52:33.179Z,26.03
2019-02-25T22:55:07.914Z,24.83
2019-02-25T22:57:37.868Z,22.97
2019-02-25T23:00:28.316Z,23.97
2019-02-25T23:03:00.767Z,24.50
2019-02-25T23:05:32.563Z,23.40
2019-02-25T23:08:03.568Z,22.27
2019-02-25T23:10:38.093Z,24.40
2019-02-25T23:13:07.145Z,24.30
2019-02-25T23:15:38.217Z,23.97
2019-02-25T23:18:11.986Z,24.10
2019-02-25T23:20:41.779Z,24.07
2019-02-25T23:23:12.497Z,25.17
2019-02-25T23:25:46.817Z,25.57
2019-02-25T23:28:16.277Z,22.30
2019-02-25T23:30:47.529Z,24.03
2019-02-25T23:33:21.282Z,24.37
2019-02-25T23:35:51.856Z,24.67
2019-02-25T23:38:23.740Z,25.63
2019-02-25T23:40:54.828Z,33.53
2019-02-25T23:43:25.750Z,32.90
2019-02-25T23:45:58.005Z,31.00
2019-02-25T23:48:32.933Z,32.23
2019-02-25T23:51:01.390Z,34.00
2019-02-25T23:53:32.931Z,31.27
2019-02-25T23:56:05.061Z,28.90
2019-02-25T23:58:38.407Z,26.70
